AirNav   Everest Fuels
 
 413 users online  

W39 Roche Harbor Seaplane Base
Roche Harbor, Washington, USA

GOING TO ROCHE HARBOR?


FAA INFORMATION EFFECTIVE 22 APRIL 2021

Location

FAA Identifier: W39
Lat/Long: 48-36-29.3570N 123-09-34.6730W
48-36.489283N 123-09.577883W
48.6081547,-123.1596314
(estimated)
Elevation: 0 ft. / 0 m (estimated)
Variation: 21E (1985)
Time zone: UTC -7 (UTC -8 during Standard Time)
Zip code: 98250

Seaplane Base Operations

Seaplane Base use: Open to the public
Activation date: 02/1965
Control tower: no
ARTCC: SEATTLE CENTER
FSS: SEATTLE FLIGHT SERVICE STATION
NOTAMs facility: SEA (NOTAM-D service available)
Attendance: UNATNDD
Wind indicator: no
Segmented circle: no

Seaplane Base Communications

CTAF: 128.25
WX ASOS at FHR (7 nm SE): 135.675 (360-378-8491)
WX AWOS-3 at ORS (12 nm NE): 135.425 (360-376-6045)

Nearby radio navigation aids

VOR radial/distance  VOR name  Freq  Var
YYJr102/14.7VICTORIA VOR/DME113.7017E
CVVr303/27.9PENN COVE VOR/DME117.2019E
YVRr164/28.2VANCOUVER VOR/DME115.9017E
HUHr209/30.6WHATCOM VORTAC113.0020E

 
NDB name  Hdg/Dist  Freq  Var  ID
FRIDAY HARBOR300/7.928417EFHR ..-. .... .-.
VICTORIA082/9.820021EYJ -.-- .---
EDIZ HOOK002/29.733817ENOW -. --- .--
SKAGIT/BAY VIEW270/30.624016EBVS -... ...- ...

Seaplane Base Services

Airframe service: NONE
Powerplant service: NONE
Bottled oxygen: NONE
Bulk oxygen: NONE

Runway Information

Runway NE/SW

Dimensions: 5000 x 1000 ft. / 1524 x 305 m
Surface: water
RUNWAY NE  RUNWAY SW
Traffic pattern: leftleft

Runway NW/SE

Dimensions: 2500 x 500 ft. / 762 x 152 m
Surface: water
RUNWAY NW  RUNWAY SE
Traffic pattern: leftleft

Seaplane Base Ownership and Management from official FAA records

Ownership: Privately-owned
Owner: ROCHE HARBOR RESORT
P.O. BOX 4001
ROCHE HARBOR, WA 98250
Phone 360-378-2155
Manager: KEVIN CARLTON
P.O. BOX 4001
ROCHE HARBOR, WA 98250
Phone (360) 317-6167
DIRECT LINE: 800-586-3590.

Seaplane Base Operational Statistics

Aircraft operations: avg 54/week *
57% air taxi
43% transient general aviation
* for 12-month period ending 31 December 2019

Additional Remarks

BOATS IN LANDING AREAS AND IN DOCKING AREA.
CALL AHD FOR MOORAGE AND LANDING INSTRN, 800-586-3590.
CALL AHD TO MAKE CUST APNTMT, 360-378-2080.
APCH/DEP SVC PRVDD BY VICTORIA TRML ON 132.7/290.8. (604) 586-4560.

Instrument Procedures

There are no published instrument procedures at W39.

Some nearby airports with instrument procedures:

KFHR - Friday Harbor Airport (7 nm SE)
KORS - Orcas Island Airport (12 nm NE)
KNUW - Whidbey Island Naval Air Station (Ault Field) (25 nm SE)
KBLI - Bellingham International Airport (27 nm NE)
KOKH - AJ Eisenberg Airport (29 nm SE)
 
Loc | Ops | Rwys | IFR | FBO | Links
Com | Nav | Svcs | Stats | Notes
Area around W39 (Roche Harbor Seaplane Base)
 
Road maps at: MapQuest Bing Google
 
Aerial photo
WARNING: Photo may not be current or correct
Aerial photo of W39 (Roche Harbor Seaplane Base)
Do you have a better or more recent aerial photo of Roche Harbor Seaplane Base that you would like to share? If so, please send us your photo.

 
Sectional chart

 
Airport distance calculator
Flying to Roche Harbor Seaplane Base? Find the distance to fly.

From to W39

Sunrise and sunset
Times for 15-May-2021
 Local
(UTC-7)
 Zulu
(UTC)
Morning civil twilight04:5511:55
Sunrise05:3312:33
Sunset20:4503:45
Evening civil twilight21:2304:23

Current date and time
Zulu (UTC)  15-May-2021 07:24:47
Local (UTC-7)  15-May-2021 00:24:47
 
METAR
CWZO 
5nm SW 
150600Z AUTO 16009KT RMK AO1
KFHR 
7nm SE 
150653Z AUTO 36003KT 10SM CLR 08/07 A3010 RMK AO2 SLP191 T00780072 TSNO
CWYJ 
11nm SW 
150600Z AUTO 26002KT 11/08 RMK AO1 SLP185 T01130080 53004
CWEZ 
11nm NE 
150600Z AUTO 21006KT 14/10 RMK AO1 SLP181 T01390095 51006
CYYJ 
11nm W 
150600Z 05003KT 050V170 20SM SKC 11/10 A3007 RMK SLP185
KORS 
12nm NE 
150655Z AUTO 16007KT 10SM CLR 12/10 A3008 RMK AO2
CWLM 
13nm SW 
150600Z AUTO 24008KT 11/08 RMK AO1 SLP185 T01090077 52004
CYWH 
13nm SW 
150400Z 25005KT 15SM SKC 14/09 A3006 RMK /LAST STFD OBS/NEXT 151300UTC SLP182
CWPF 
15nm SW 
150645Z AUTO 00000KT 13/08 RMK AO1 SLP184 T01320082 52006
CWKH 
16nm W 
150600Z AUTO 14/ RMK AO1 SLP178 T0142 53003
TAF
CYYJ 
11nm W 
150538Z 1506/1606 VRB03KT P6SM SCT250 PROB30 1508/1512 3SM BR FM151500 30005KT P6SM SKC BECMG 1517/1519 10007KT BECMG 1603/1605 VRB03KT RMK NXT FCST BY 151200Z
CYWH 
13nm SW 
142038Z 1421/1504 21007KT P6SM SKC RMK NXT FCST WILL BE ISSUED AT 151415Z
NOTAMs
Click for the latest NOTAMs
NOTAMs are issued by the DoD/FAA and will open in a separate window not controlled by AirNav.

 

 
 

Getting Around: Taxi, Limo, Rental Cars, Mass Transit

  
 Business Name 
 
 Contact 
 
Services / Description
 
Comments
  
 Susie's Moped & Auto Rentals
360-378-5244
[web site]
[email]

Like us on facebook Follow us on twitter
Rental cars, Ground transportation, Other business

More info about Susie's Moped & Auto Rentals
 
   write
 

Would you like to see your business listed on this page?

 If your business provides an interesting product or service to pilots, flight crews, aircraft, or users of the Roche Harbor Seaplane Base, you should consider listing it here.  To start the listing process, click on the button below
 
Add a business
 

Other Pages about Roche Harbor Seaplane Base

Update a link
 
Copyright © AirNav, LLC. All rights reserved. Privacy Policy  Contact